sensor_id;sensor_type;location;lat;lon;timestamp;temperature;humidity
61000;SHT31;46879;45.658;11.814;2023-08-01T00:01:47;27.04;66.49
61000;SHT31;46879;45.658;11.814;2023-08-01T00:06:48;26.93;66.76
61000;SHT31;46879;45.658;11.814;2023-08-01T00:11:49;26.96;66.56
61000;SHT31;46879;45.658;11.814;2023-08-01T00:16:50;26.97;66.40
61000;SHT31;46879;45.658;11.814;2023-08-01T00:21:51;27.00;66.25
61000;SHT31;46879;45.658;11.814;2023-08-01T00:26:52;26.96;66.20
61000;SHT31;46879;45.658;11.814;2023-08-01T00:31:55;26.96;66.12
61000;SHT31;46879;45.658;11.814;2023-08-01T00:36:57;26.93;65.94
61000;SHT31;46879;45.658;11.814;2023-08-01T00:41:57;26.90;66.04
61000;SHT31;46879;45.658;11.814;2023-08-01T00:46:58;26.91;65.98
61000;SHT31;46879;45.658;11.814;2023-08-01T00:51:58;26.90;65.84
61000;SHT31;46879;45.658;11.814;2023-08-01T00:56:59;26.87;65.90
61000;SHT31;46879;45.658;11.814;2023-08-01T01:02:00;26.83;65.70
61000;SHT31;46879;45.658;11.814;2023-08-01T01:07:03;26.82;65.87
61000;SHT31;46879;45.658;11.814;2023-08-01T01:12:06;26.79;65.89
61000;SHT31;46879;45.658;11.814;2023-08-01T01:17:07;26.77;65.83
61000;SHT31;46879;45.658;11.814;2023-08-01T01:22:09;26.80;65.64
61000;SHT31;46879;45.658;11.814;2023-08-01T01:27:12;26.76;65.68
61000;SHT31;46879;45.658;11.814;2023-08-01T01:32:13;26.77;65.59
61000;SHT31;46879;45.658;11.814;2023-08-01T01:37:14;26.75;65.49
61000;SHT31;46879;45.658;11.814;2023-08-01T01:42:15;26.75;65.42
61000;SHT31;46879;45.658;11.814;2023-08-01T01:47:17;26.76;65.48
61000;SHT31;46879;45.658;11.814;2023-08-01T01:52:18;26.82;65.37
61000;SHT31;46879;45.658;11.814;2023-08-01T01:57:18;26.77;65.30
61000;SHT31;46879;45.658;11.814;2023-08-01T02:02:19;26.69;65.45
61000;SHT31;46879;45.658;11.814;2023-08-01T02:07:19;26.69;65.50
61000;SHT31;46879;45.658;11.814;2023-08-01T02:12:20;26.70;65.44
61000;SHT31;46879;45.658;11.814;2023-08-01T02:17:20;26.69;65.44
61000;SHT31;46879;45.658;11.814;2023-08-01T02:22:22;26.72;65.30
61000;SHT31;46879;45.658;11.814;2023-08-01T02:27:22;26.70;65.37
61000;SHT31;46879;45.658;11.814;2023-08-01T02:32:23;26.70;65.16
61000;SHT31;46879;45.658;11.814;2023-08-01T02:37:23;26.64;65.31
61000;SHT31;46879;45.658;11.814;2023-08-01T02:42:24;26.66;65.17
61000;SHT31;46879;45.658;11.814;2023-08-01T02:47:24;26.66;65.30
61000;SHT31;46879;45.658;11.814;2023-08-01T02:52:25;26.56;65.55
61000;SHT31;46879;45.658;11.814;2023-08-01T02:57:25;26.59;65.46
61000;SHT31;46879;45.658;11.814;2023-08-01T03:02:26;26.57;65.41
61000;SHT31;46879;45.658;11.814;2023-08-01T03:07:28;26.53;65.40
61000;SHT31;46879;45.658;11.814;2023-08-01T03:12:28;26.52;65.31
61000;SHT31;46879;45.658;11.814;2023-08-01T03:17:29;26.53;65.32
61000;SHT31;46879;45.658;11.814;2023-08-01T03:22:29;26.46;65.49
61000;SHT31;46879;45.658;11.814;2023-08-01T03:27:30;26.43;65.50
61000;SHT31;46879;45.658;11.814;2023-08-01T03:32:31;26.45;65.36
61000;SHT31;46879;45.658;11.814;2023-08-01T03:37:32;26.41;65.50
61000;SHT31;46879;45.658;11.814;2023-08-01T03:42:33;26.36;65.71
61000;SHT31;46879;45.658;11.814;2023-08-01T03:47:33;26.38;65.65
61000;SHT31;46879;45.658;11.814;2023-08-01T03:52:34;26.35;65.73
61000;SHT31;46879;45.658;11.814;2023-08-01T03:57:34;26.35;65.69
61000;SHT31;46879;45.658;11.814;2023-08-01T04:02:35;26.39;65.53
61000;SHT31;46879;45.658;11.814;2023-08-01T04:07:37;26.43;65.39
61000;SHT31;46879;45.658;11.814;2023-08-01T04:12:38;26.48;65.22
61000;SHT31;46879;45.658;11.814;2023-08-01T04:17:38;26.43;65.40
61000;SHT31;46879;45.658;11.814;2023-08-01T04:22:39;26.45;65.32
61000;SHT31;46879;45.658;11.814;2023-08-01T04:27:39;26.45;65.34
61000;SHT31;46879;45.658;11.814;2023-08-01T04:32:40;26.51;65.27
61000;SHT31;46879;45.658;11.814;2023-08-01T04:37:41;26.51;65.43
61000;SHT31;46879;45.658;11.814;2023-08-01T04:42:41;26.49;65.32
61000;SHT31;46879;45.658;11.814;2023-08-01T04:47:42;26.43;65.53
61000;SHT31;46879;45.658;11.814;2023-08-01T04:52:42;26.45;65.67
61000;SHT31;46879;45.658;11.814;2023-08-01T04:57:43;26.51;65.62
61000;SHT31;46879;45.658;11.814;2023-08-01T05:02:43;26.48;65.71
61000;SHT31;46879;45.658;11.814;2023-08-01T05:07:44;26.49;65.86
61000;SHT31;46879;45.658;11.814;2023-08-01T05:12:44;26.56;65.67
61000;SHT31;46879;45.658;11.814;2023-08-01T05:17:45;26.59;65.69
61000;SHT31;46879;45.658;11.814;2023-08-01T05:22:46;26.66;65.57
61000;SHT31;46879;45.658;11.814;2023-08-01T05:27:46;26.77;65.31
61000;SHT31;46879;45.658;11.814;2023-08-01T05:32:47;26.84;65.27
61000;SHT31;46879;45.658;11.814;2023-08-01T05:37:47;26.89;65.10
61000;SHT31;46879;45.658;11.814;2023-08-01T05:42:48;26.93;65.02
61000;SHT31;46879;45.658;11.814;2023-08-01T05:47:49;26.93;64.96
61000;SHT31;46879;45.658;11.814;2023-08-01T05:52:49;26.94;64.86
61000;SHT31;46879;45.658;11.814;2023-08-01T05:57:50;26.93;65.29
61000;SHT31;46879;45.658;11.814;2023-08-01T06:02:52;26.97;65.25
61000;SHT31;46879;45.658;11.814;2023-08-01T06:07:53;26.97;65.18
61000;SHT31;46879;45.658;11.814;2023-08-01T06:12:54;27.00;65.34
61000;SHT31;46879;45.658;11.814;2023-08-01T06:17:54;27.04;65.32
61000;SHT31;46879;45.658;11.814;2023-08-01T06:22:55;27.06;65.36
61000;SHT31;46879;45.658;11.814;2023-08-01T06:27:55;27.07;65.35
61000;SHT31;46879;45.658;11.814;2023-08-01T06:32:56;27.07;65.40
61000;SHT31;46879;45.658;11.814;2023-08-01T06:37:56;27.10;65.37
61000;SHT31;46879;45.658;11.814;2023-08-01T06:42:57;27.08;65.44
61000;SHT31;46879;45.658;11.814;2023-08-01T06:47:58;27.11;65.40
61000;SHT31;46879;45.658;11.814;2023-08-01T06:52:58;27.10;65.48
61000;SHT31;46879;45.658;11.814;2023-08-01T06:57:59;27.14;65.44
61000;SHT31;46879;45.658;11.814;2023-08-01T07:03:00;27.14;65.40
61000;SHT31;46879;45.658;11.814;2023-08-01T07:08:00;27.14;65.32
61000;SHT31;46879;45.658;11.814;2023-08-01T07:13:02;27.15;65.41
61000;SHT31;46879;45.658;11.814;2023-08-01T07:18:05;27.17;65.33
61000;SHT31;46879;45.658;11.814;2023-08-01T07:23:06;27.17;65.31
61000;SHT31;46879;45.658;11.814;2023-08-01T07:28:06;27.18;65.31
61000;SHT31;46879;45.658;11.814;2023-08-01T07:33:07;27.17;65.27
61000;SHT31;46879;45.658;11.814;2023-08-01T07:38:07;27.18;65.22
61000;SHT31;46879;45.658;11.814;2023-08-01T07:43:08;27.18;65.21
61000;SHT31;46879;45.658;11.814;2023-08-01T07:48:09;27.20;65.22
61000;SHT31;46879;45.658;11.814;2023-08-01T07:53:09;27.23;65.08
61000;SHT31;46879;45.658;11.814;2023-08-01T07:58:10;27.23;65.23
61000;SHT31;46879;45.658;11.814;2023-08-01T08:03:11;27.20;65.11
61000;SHT31;46879;45.658;11.814;2023-08-01T08:08:11;27.23;65.17
61000;SHT31;46879;45.658;11.814;2023-08-01T08:13:12;27.23;65.10
61000;SHT31;46879;45.658;11.814;2023-08-01T08:18:13;27.24;65.21
61000;SHT31;46879;45.658;11.814;2023-08-01T08:23:13;27.25;65.06
61000;SHT31;46879;45.658;11.814;2023-08-01T08:28:32;27.27;65.17
61000;SHT31;46879;45.658;11.814;2023-08-01T08:33:33;27.25;65.14
61000;SHT31;46879;45.658;11.814;2023-08-01T08:38:34;27.27;65.09
61000;SHT31;46879;45.658;11.814;2023-08-01T08:43:35;27.27;65.09
61000;SHT31;46879;45.658;11.814;2023-08-01T08:48:36;27.28;65.05
61000;SHT31;46879;45.658;11.814;2023-08-01T08:53:40;27.27;65.10
61000;SHT31;46879;45.658;11.814;2023-08-01T08:58:41;27.28;64.93
61000;SHT31;46879;45.658;11.814;2023-08-01T09:03:43;27.28;64.99
61000;SHT31;46879;45.658;11.814;2023-08-01T09:09:02;27.32;65.00
61000;SHT31;46879;45.658;11.814;2023-08-01T09:14:04;27.30;64.95
61000;SHT31;46879;45.658;11.814;2023-08-01T09:19:06;27.31;64.99
61000;SHT31;46879;45.658;11.814;2023-08-01T09:24:19;27.30;65.04
61000;SHT31;46879;45.658;11.814;2023-08-01T09:29:20;27.31;65.01
61000;SHT31;46879;45.658;11.814;2023-08-01T09:34:26;27.28;65.04
61000;SHT31;46879;45.658;11.814;2023-08-01T09:39:27;27.32;64.95
61000;SHT31;46879;45.658;11.814;2023-08-01T09:44:29;27.34;64.95
61000;SHT31;46879;45.658;11.814;2023-08-01T09:49:30;27.35;64.98
61000;SHT31;46879;45.658;11.814;2023-08-01T09:54:31;27.34;64.96
61000;SHT31;46879;45.658;11.814;2023-08-01T09:59:33;27.34;65.01
61000;SHT31;46879;45.658;11.814;2023-08-01T10:04:35;27.34;65.01
61000;SHT31;46879;45.658;11.814;2023-08-01T10:09:36;27.37;64.95
61000;SHT31;46879;45.658;11.814;2023-08-01T10:14:37;27.37;64.93
61000;SHT31;46879;45.658;11.814;2023-08-01T10:19:39;27.35;64.94
61000;SHT31;46879;45.658;11.814;2023-08-01T10:24:41;27.39;64.87
61000;SHT31;46879;45.658;11.814;2023-08-01T10:29:42;27.39;64.80
61000;SHT31;46879;45.658;11.814;2023-08-01T10:34:51;27.39;64.86
61000;SHT31;46879;45.658;11.814;2023-08-01T10:39:59;27.41;64.74
61000;SHT31;46879;45.658;11.814;2023-08-01T10:45:00;27.43;64.68
61000;SHT31;46879;45.658;11.814;2023-08-01T10:50:01;27.43;64.72
61000;SHT31;46879;45.658;11.814;2023-08-01T10:55:04;27.43;64.61
61000;SHT31;46879;45.658;11.814;2023-08-01T11:00:06;27.42;64.72
61000;SHT31;46879;45.658;11.814;2023-08-01T11:05:11;27.46;64.67
61000;SHT31;46879;45.658;11.814;2023-08-01T11:10:13;27.45;64.60
61000;SHT31;46879;45.658;11.814;2023-08-01T11:15:14;27.45;64.54
61000;SHT31;46879;45.658;11.814;2023-08-01T11:20:17;27.48;64.56
61000;SHT31;46879;45.658;11.814;2023-08-01T11:25:18;27.42;64.48
61000;SHT31;46879;45.658;11.814;2023-08-01T11:30:19;27.46;64.52
61000;SHT31;46879;45.658;11.814;2023-08-01T11:35:19;27.46;64.48
61000;SHT31;46879;45.658;11.814;2023-08-01T11:40:20;27.46;64.37
61000;SHT31;46879;45.658;11.814;2023-08-01T11:45:21;27.48;64.51
61000;SHT31;46879;45.658;11.814;2023-08-01T11:50:23;27.49;64.59
61000;SHT31;46879;45.658;11.814;2023-08-01T11:55:27;27.49;64.71
61000;SHT31;46879;45.658;11.814;2023-08-01T12:00:29;27.48;64.98
61000;SHT31;46879;45.658;11.814;2023-08-01T12:05:29;27.49;65.32
61000;SHT31;46879;45.658;11.814;2023-08-01T12:10:50;27.52;65.50
61000;SHT31;46879;45.658;11.814;2023-08-01T12:15:53;27.52;65.86
61000;SHT31;46879;45.658;11.814;2023-08-01T12:20:53;27.51;65.65
61000;SHT31;46879;45.658;11.814;2023-08-01T12:25:54;27.51;65.68
61000;SHT31;46879;45.658;11.814;2023-08-01T12:30:55;27.51;65.98
61000;SHT31;46879;45.658;11.814;2023-08-01T12:36:02;27.52;66.43
61000;SHT31;46879;45.658;11.814;2023-08-01T12:41:04;27.51;66.47
61000;SHT31;46879;45.658;11.814;2023-08-01T12:46:04;27.53;66.83
61000;SHT31;46879;45.658;11.814;2023-08-01T12:51:05;27.55;66.61
61000;SHT31;46879;45.658;11.814;2023-08-01T12:56:05;27.56;66.69
61000;SHT31;46879;45.658;11.814;2023-08-01T13:01:07;27.55;66.70
61000;SHT31;46879;45.658;11.814;2023-08-01T13:06:11;27.58;66.68
61000;SHT31;46879;45.658;11.814;2023-08-01T13:11:14;27.58;66.66
61000;SHT31;46879;45.658;11.814;2023-08-01T13:16:15;27.58;66.95
61000;SHT31;46879;45.658;11.814;2023-08-01T13:21:15;27.58;66.90
61000;SHT31;46879;45.658;11.814;2023-08-01T13:26:16;27.58;67.06
61000;SHT31;46879;45.658;11.814;2023-08-01T13:31:16;27.60;66.96
61000;SHT31;46879;45.658;11.814;2023-08-01T13:36:18;27.62;67.10
61000;SHT31;46879;45.658;11.814;2023-08-01T13:41:19;27.63;66.84
61000;SHT31;46879;45.658;11.814;2023-08-01T13:46:19;27.63;66.87
61000;SHT31;46879;45.658;11.814;2023-08-01T13:51:20;27.66;66.93
61000;SHT31;46879;45.658;11.814;2023-08-01T13:56:20;27.66;67.00
61000;SHT31;46879;45.658;11.814;2023-08-01T14:01:22;27.67;66.71
61000;SHT31;46879;45.658;11.814;2023-08-01T14:06:23;27.65;66.52
61000;SHT31;46879;45.658;11.814;2023-08-01T14:11:23;27.63;66.41
61000;SHT31;46879;45.658;11.814;2023-08-01T14:16:24;27.62;66.54
61000;SHT31;46879;45.658;11.814;2023-08-01T14:21:25;27.67;66.65
61000;SHT31;46879;45.658;11.814;2023-08-01T14:26:25;27.66;66.46
61000;SHT31;46879;45.658;11.814;2023-08-01T14:31:26;27.65;66.59
61000;SHT31;46879;45.658;11.814;2023-08-01T14:36:26;27.65;66.60
61000;SHT31;46879;45.658;11.814;2023-08-01T14:41:27;27.66;66.55
61000;SHT31;46879;45.658;11.814;2023-08-01T14:46:27;27.69;66.68
61000;SHT31;46879;45.658;11.814;2023-08-01T14:51:28;27.69;66.65
61000;SHT31;46879;45.658;11.814;2023-08-01T14:56:29;27.65;66.91
61000;SHT31;46879;45.658;11.814;2023-08-01T15:01:30;27.67;66.79
61000;SHT31;46879;45.658;11.814;2023-08-01T15:06:30;27.63;66.62
61000;SHT31;46879;45.658;11.814;2023-08-01T15:11:31;27.65;66.48
61000;SHT31;46879;45.658;11.814;2023-08-01T15:16:32;27.66;66.62
61000;SHT31;46879;45.658;11.814;2023-08-01T15:21:32;27.66;66.81
61000;SHT31;46879;45.658;11.814;2023-08-01T15:26:33;27.66;66.88
61000;SHT31;46879;45.658;11.814;2023-08-01T15:31:35;27.66;66.85
61000;SHT31;46879;45.658;11.814;2023-08-01T15:36:36;27.65;66.84
61000;SHT31;46879;45.658;11.814;2023-08-01T15:41:36;27.66;66.89
61000;SHT31;46879;45.658;11.814;2023-08-01T15:46:37;27.67;66.86
61000;SHT31;46879;45.658;11.814;2023-08-01T15:51:37;27.67;67.04
61000;SHT31;46879;45.658;11.814;2023-08-01T15:56:38;27.66;66.98
61000;SHT31;46879;45.658;11.814;2023-08-01T16:01:38;27.66;67.74
61000;SHT31;46879;45.658;11.814;2023-08-01T16:06:39;27.69;67.35
61000;SHT31;46879;45.658;11.814;2023-08-01T16:11:40;27.67;67.11
61000;SHT31;46879;45.658;11.814;2023-08-01T16:16:40;27.66;67.14
61000;SHT31;46879;45.658;11.814;2023-08-01T16:21:41;27.66;67.12
61000;SHT31;46879;45.658;11.814;2023-08-01T16:26:41;27.69;66.91
61000;SHT31;46879;45.658;11.814;2023-08-01T16:31:42;27.70;66.89
61000;SHT31;46879;45.658;11.814;2023-08-01T16:36:42;27.69;66.82
61000;SHT31;46879;45.658;11.814;2023-08-01T16:41:43;27.70;67.09
61000;SHT31;46879;45.658;11.814;2023-08-01T16:46:44;27.71;66.93
61000;SHT31;46879;45.658;11.814;2023-08-01T16:51:44;27.77;68.25
61000;SHT31;46879;45.658;11.814;2023-08-01T16:56:45;27.80;68.81
61000;SHT31;46879;45.658;11.814;2023-08-01T17:01:45;27.80;68.76
61000;SHT31;46879;45.658;11.814;2023-08-01T17:06:46;27.76;68.14
61000;SHT31;46879;45.658;11.814;2023-08-01T17:11:47;27.74;67.86
61000;SHT31;46879;45.658;11.814;2023-08-01T17:16:48;27.73;68.25
61000;SHT31;46879;45.658;11.814;2023-08-01T17:21:48;27.71;67.86
61000;SHT31;46879;45.658;11.814;2023-08-01T17:26:49;27.71;67.89
61000;SHT31;46879;45.658;11.814;2023-08-01T17:31:49;27.74;67.91
61000;SHT31;46879;45.658;11.814;2023-08-01T17:36:50;27.74;67.59
61000;SHT31;46879;45.658;11.814;2023-08-01T17:41:51;27.74;67.37
61000;SHT31;46879;45.658;11.814;2023-08-01T17:46:53;27.70;68.38
61000;SHT31;46879;45.658;11.814;2023-08-01T17:51:54;27.73;68.23
61000;SHT31;46879;45.658;11.814;2023-08-01T17:56:54;27.70;68.76
61000;SHT31;46879;45.658;11.814;2023-08-01T18:01:55;27.70;68.90
61000;SHT31;46879;45.658;11.814;2023-08-01T18:06:56;27.67;68.94
61000;SHT31;46879;45.658;11.814;2023-08-01T18:11:56;27.70;68.75
61000;SHT31;46879;45.658;11.814;2023-08-01T18:16:57;27.69;68.76
61000;SHT31;46879;45.658;11.814;2023-08-01T18:21:57;27.66;68.93
61000;SHT31;46879;45.658;11.814;2023-08-01T18:26:58;27.62;69.24
61000;SHT31;46879;45.658;11.814;2023-08-01T18:31:59;27.62;69.18
61000;SHT31;46879;45.658;11.814;2023-08-01T18:36:59;27.62;69.13
61000;SHT31;46879;45.658;11.814;2023-08-01T18:42:00;27.63;69.11
61000;SHT31;46879;45.658;11.814;2023-08-01T18:47:00;27.62;68.99
61000;SHT31;46879;45.658;11.814;2023-08-01T18:52:01;27.25;71.08
61000;SHT31;46879;45.658;11.814;2023-08-01T18:57:01;26.72;72.65
61000;SHT31;46879;45.658;11.814;2023-08-01T19:02:02;26.57;72.73
61000;SHT31;46879;45.658;11.814;2023-08-01T19:07:03;26.32;73.27
61000;SHT31;46879;45.658;11.814;2023-08-01T19:12:07;26.21;73.45
61000;SHT31;46879;45.658;11.814;2023-08-01T19:17:08;26.25;73.34
61000;SHT31;46879;45.658;11.814;2023-08-01T19:22:08;26.48;72.62
61000;SHT31;46879;45.658;11.814;2023-08-01T19:27:09;27.01;71.59
61000;SHT31;46879;45.658;11.814;2023-08-01T19:32:09;27.17;71.06
61000;SHT31;46879;45.658;11.814;2023-08-01T19:37:10;27.06;71.38
61000;SHT31;46879;45.658;11.814;2023-08-01T19:42:11;27.10;71.13
61000;SHT31;46879;45.658;11.814;2023-08-01T19:47:13;27.07;70.97
61000;SHT31;46879;45.658;11.814;2023-08-01T19:52:13;27.00;70.32
61000;SHT31;46879;45.658;11.814;2023-08-01T19:57:14;26.98;69.58
61000;SHT31;46879;45.658;11.814;2023-08-01T20:02:15;26.97;68.69
61000;SHT31;46879;45.658;11.814;2023-08-01T20:07:15;26.98;67.90
61000;SHT31;46879;45.658;11.814;2023-08-01T20:12:16;26.93;67.59
61000;SHT31;46879;45.658;11.814;2023-08-01T20:17:17;26.90;66.81
61000;SHT31;46879;45.658;11.814;2023-08-01T20:22:21;26.93;66.31
61000;SHT31;46879;45.658;11.814;2023-08-01T20:27:21;26.90;66.09
61000;SHT31;46879;45.658;11.814;2023-08-01T20:32:22;26.98;65.63
61000;SHT31;46879;45.658;11.814;2023-08-01T20:37:23;27.06;65.40
61000;SHT31;46879;45.658;11.814;2023-08-01T20:42:23;27.06;65.15
61000;SHT31;46879;45.658;11.814;2023-08-01T20:47:24;27.07;64.99
61000;SHT31;46879;45.658;11.814;2023-08-01T20:52:24;27.08;64.83
61000;SHT31;46879;45.658;11.814;2023-08-01T20:57:25;27.01;64.68
61000;SHT31;46879;45.658;11.814;2023-08-01T21:02:26;26.79;64.90
61000;SHT31;46879;45.658;11.814;2023-08-01T21:07:28;26.56;65.46
61000;SHT31;46879;45.658;11.814;2023-08-01T21:12:28;26.43;65.66
61000;SHT31;46879;45.658;11.814;2023-08-01T21:17:29;26.51;65.07
61000;SHT31;46879;45.658;11.814;2023-08-01T21:22:30;26.22;65.68
61000;SHT31;46879;45.658;11.814;2023-08-01T21:27:30;26.01;65.95
61000;SHT31;46879;45.658;11.814;2023-08-01T21:32:31;25.80;66.31
61000;SHT31;46879;45.658;11.814;2023-08-01T21:37:31;25.87;66.09
61000;SHT31;46879;45.658;11.814;2023-08-01T21:42:33;26.43;65.22
61000;SHT31;46879;45.658;11.814;2023-08-01T21:47:34;26.68;64.83
61000;SHT31;46879;45.658;11.814;2023-08-01T21:52:35;26.76;64.89
61000;SHT31;46879;45.658;11.814;2023-08-01T21:57:36;26.83;65.08
61000;SHT31;46879;45.658;11.814;2023-08-01T22:02:38;26.87;65.17
61000;SHT31;46879;45.658;11.814;2023-08-01T22:07:38;26.93;65.64
61000;SHT31;46879;45.658;11.814;2023-08-01T22:12:39;26.96;65.61
61000;SHT31;46879;45.658;11.814;2023-08-01T22:17:42;27.00;65.42
61000;SHT31;46879;45.658;11.814;2023-08-01T22:22:43;26.98;65.24
61000;SHT31;46879;45.658;11.814;2023-08-01T22:27:43;27.01;65.13
61000;SHT31;46879;45.658;11.814;2023-08-01T22:32:44;27.08;65.05
61000;SHT31;46879;45.658;11.814;2023-08-01T22:37:45;27.14;64.79
61000;SHT31;46879;45.658;11.814;2023-08-01T22:42:45;27.15;64.58
61000;SHT31;46879;45.658;11.814;2023-08-01T22:47:46;27.15;64.58
61000;SHT31;46879;45.658;11.814;2023-08-01T22:52:46;27.18;64.39
61000;SHT31;46879;45.658;11.814;2023-08-01T22:57:49;27.17;64.34
61000;SHT31;46879;45.658;11.814;2023-08-01T23:02:50;27.18;64.18
61000;SHT31;46879;45.658;11.814;2023-08-01T23:07:51;27.18;63.98
61000;SHT31;46879;45.658;11.814;2023-08-01T23:12:52;27.20;63.80
61000;SHT31;46879;45.658;11.814;2023-08-01T23:17:52;27.21;63.68
61000;SHT31;46879;45.658;11.814;2023-08-01T23:22:53;27.23;63.43
61000;SHT31;46879;45.658;11.814;2023-08-01T23:27:54;27.24;63.34
61000;SHT31;46879;45.658;11.814;2023-08-01T23:32:55;27.24;63.07
61000;SHT31;46879;45.658;11.814;2023-08-01T23:37:56;27.23;63.07
61000;SHT31;46879;45.658;11.814;2023-08-01T23:42:58;27.24;62.66
61000;SHT31;46879;45.658;11.814;2023-08-01T23:47:59;27.25;62.45
61000;SHT31;46879;45.658;11.814;2023-08-01T23:52:59;27.24;62.08
